Time;durP1;ratioP1;P1;durP2;ratioP2;P2;SDS_P1;SDS_P2;PMS_P1;PMS_P2;Temp;Humidity;BMP_temperature;BMP_pressure;BME280_temperature;BME280_humidity;BME280_pressure;Samples;Min_cycle;Max_cycle;Signal;HPM_P1;HPM_P2
2023/03/21 00:01:55;;;;;;;3.10;2.30;;;12.30;99.90;;;;;;5003414;28;20184;-76
2023/03/21 00:04:22;;;;;;;4.80;2.27;;;12.30;99.90;;;;;;5011535;28;20445;-74
2023/03/21 00:06:48;;;;;;;4.00;2.67;;;12.30;99.90;;;;;;5001230;28;20265;-71
2023/03/21 00:09:14;;;;;;;3.83;2.13;;;12.20;99.90;;;;;;4999677;28;20423;-73
2023/03/21 00:11:39;;;;;;;3.57;2.67;;;12.00;99.90;;;;;;4995107;28;20548;-73
2023/03/21 00:14:07;;;;;;;5.67;2.60;;;11.90;99.90;;;;;;5006117;28;20230;-73
2023/03/21 00:16:34;;;;;;;2.50;2.30;;;11.90;99.90;;;;;;5000846;28;20171;-72
2023/03/21 00:19:02;;;;;;;2.27;2.07;;;11.90;99.90;;;;;;5000544;28;20426;-74
2023/03/21 00:21:31;;;;;;;3.63;2.70;;;11.90;99.90;;;;;;5020899;28;20431;-70
2023/03/21 00:23:58;;;;;;;2.77;2.53;;;12.00;99.90;;;;;;5007683;28;20478;-71
2023/03/21 00:26:23;;;;;;;2.70;2.40;;;12.00;99.90;;;;;;4989825;28;20457;-71
2023/03/21 00:28:49;;;;;;;2.63;2.10;;;12.00;99.90;;;;;;4995661;28;20423;-70
2023/03/21 00:31:16;;;;;;;3.20;2.60;;;12.00;99.90;;;;;;4989995;28;20293;-74
2023/03/21 00:33:41;;;;;;;2.43;2.23;;;12.00;99.90;;;;;;4987910;28;20482;-74
2023/03/21 00:36:09;;;;;;;3.00;2.50;;;12.00;99.90;;;;;;5004951;28;20414;-75
2023/03/21 00:38:35;;;;;;;2.20;2.00;;;12.00;99.90;;;;;;5000479;28;20176;-71
2023/03/21 00:41:05;;;;;;;3.20;2.37;;;12.00;99.90;;;;;;4993803;28;20415;-73
2023/03/21 00:43:31;;;;;;;5.80;2.53;;;12.00;99.90;;;;;;4993953;28;20427;-72
2023/03/21 00:45:58;;;;;;;2.97;2.30;;;12.00;99.90;;;;;;4996908;28;20454;-73
2023/03/21 00:48:25;;;;;;;2.40;2.20;;;12.10;99.90;;;;;;5015306;28;20267;-73
2023/03/21 00:50:51;;;;;;;3.23;2.47;;;12.10;99.90;;;;;;4987873;28;20447;-72
2023/03/21 00:53:17;;;;;;;2.00;1.70;;;12.10;99.90;;;;;;4986494;28;20415;-74
2023/03/21 00:55:43;;;;;;;2.30;2.10;;;12.10;99.90;;;;;;4985004;28;21258;-72
2023/03/21 00:58:09;;;;;;;3.77;2.90;;;12.10;99.90;;;;;;4986377;28;20187;-73
2023/03/21 01:00:36;;;;;;;2.60;2.40;;;12.10;99.90;;;;;;4986455;28;20190;-70
2023/03/21 01:03:06;;;;;;;4.17;2.80;;;12.00;99.90;;;;;;4989423;28;21044;-71
2023/03/21 01:06:03;;;;;;;3.10;2.30;;;12.10;99.90;;;;;;4995918;28;20649;-70
2023/03/21 01:08:31;;;;;;;2.07;1.67;;;12.10;99.90;;;;;;5020603;28;21009;-71
2023/03/21 01:11:01;;;;;;;3.10;2.40;;;12.10;99.90;;;;;;4995539;28;20427;-70
2023/03/21 01:13:26;;;;;;;2.47;2.27;;;12.10;99.90;;;;;;4986143;28;20469;-74
2023/03/21 01:15:57;;;;;;;3.80;1.90;;;12.00;99.90;;;;;;5018724;22;20561;-71
2023/03/21 01:18:26;;;;;;;2.63;2.13;;;12.00;99.90;;;;;;5006656;28;20164;-75
2023/03/21 01:20:54;;;;;;;4.17;2.93;;;12.00;99.90;;;;;;5007080;28;20445;-71
2023/03/21 01:23:19;;;;;;;2.57;2.33;;;12.00;99.90;;;;;;5007238;28;21354;-77
2023/03/21 01:25:47;;;;;;;2.20;2.00;;;12.00;99.90;;;;;;5006928;28;20451;-71
2023/03/21 01:28:13;;;;;;;2.30;2.10;;;12.00;99.90;;;;;;5006816;28;20173;-70
2023/03/21 01:30:47;;;;;;;2.30;2.10;;;12.00;99.90;;;;;;5006563;28;20413;-76
2023/03/21 01:33:13;;;;;;;3.40;3.10;;;11.90;99.90;;;;;;5005308;28;20206;-70
2023/03/21 01:35:39;;;;;;;5.17;2.10;;;11.90;99.90;;;;;;5005236;28;20466;-76
2023/03/21 01:38:05;;;;;;;3.80;2.63;;;11.80;99.90;;;;;;5004755;28;20477;-69
2023/03/21 01:40:30;;;;;;;6.20;2.60;;;11.80;99.90;;;;;;5005036;28;20263;-73
2023/03/21 01:42:56;;;;;;;2.97;2.67;;;11.80;99.90;;;;;;5004905;28;20189;-72
2023/03/21 01:45:59;;;;;;;3.00;2.30;;;11.80;99.90;;;;;;5004816;28;20738;-70
2023/03/21 01:48:27;;;;;;;3.13;2.40;;;11.90;99.90;;;;;;5005017;28;20507;-70
2023/03/21 01:50:54;;;;;;;2.70;2.50;;;11.80;99.90;;;;;;5004877;28;20410;-73
2023/03/21 01:53:27;;;;;;;2.93;2.60;;;11.80;99.90;;;;;;5004326;28;20403;-69
2023/03/21 01:55:52;;;;;;;2.80;2.17;;;11.80;99.90;;;;;;5004904;28;20423;-70
2023/03/21 01:58:18;;;;;;;3.10;2.70;;;11.70;99.90;;;;;;5004321;28;20421;-70
2023/03/21 02:00:46;;;;;;;5.43;3.10;;;11.80;99.90;;;;;;5004440;28;20183;-71
2023/03/21 02:03:15;;;;;;;4.07;2.80;;;11.70;99.90;;;;;;5005430;28;20782;-69
2023/03/21 02:05:59;;;;;;;2.50;2.30;;;11.70;99.90;;;;;;5004385;28;20522;-77
2023/03/21 02:08:27;;;;;;;3.17;2.40;;;11.70;99.90;;;;;;5004505;28;20506;-70
2023/03/21 02:10:52;;;;;;;5.50;2.97;;;11.70;99.90;;;;;;5004242;28;20467;-73
2023/03/21 02:13:18;;;;;;;2.97;2.50;;;11.70;99.90;;;;;;5004600;28;20906;-75
2023/03/21 02:16:00;;;;;;;3.80;2.30;;;11.70;99.90;;;;;;5004658;28;20215;-71
2023/03/21 02:18:44;;;;;;;3.37;2.70;;;11.70;99.90;;;;;;5004834;28;20463;-69
2023/03/21 02:21:10;;;;;;;3.80;2.50;;;11.70;99.90;;;;;;5004311;28;21239;-71
2023/03/21 02:24:03;;;;;;;4.63;3.07;;;11.70;99.90;;;;;;5004319;28;20421;-76
2023/03/21 02:26:41;;;;;;;6.93;2.60;;;11.70;99.90;;;;;;5004555;28;20202;-71
2023/03/21 02:29:41;;;;;;;3.33;2.50;;;11.70;99.90;;;;;;5005144;28;20417;-75
2023/03/21 02:32:17;;;;;;;3.60;3.30;;;11.70;99.90;;;;;;5004142;28;20507;-71
2023/03/21 02:35:01;;;;;;;3.40;3.10;;;11.70;99.90;;;;;;5004079;28;20428;-71
2023/03/21 02:37:27;;;;;;;4.67;3.90;;;11.80;99.90;;;;;;5003554;28;20433;-71
2023/03/21 02:40:27;;;;;;;3.93;3.60;;;11.80;99.90;;;;;;5004376;28;20418;-70
2023/03/21 02:43:03;;;;;;;3.43;3.20;;;11.80;99.90;;;;;;5003918;28;20205;-78
2023/03/21 02:45:40;;;;;;;4.57;3.07;;;11.70;99.90;;;;;;5003751;28;21042;-71
2023/03/21 02:48:11;;;;;;;4.10;3.30;;;11.70;99.90;;;;;;5003912;28;20415;-71
2023/03/21 02:50:45;;;;;;;4.77;3.30;;;11.70;99.90;;;;;;5002931;28;20851;-69
2023/03/21 02:53:14;;;;;;;3.40;3.10;;;11.60;99.90;;;;;;5004109;28;20410;-69
2023/03/21 02:55:42;;;;;;;4.17;3.63;;;11.60;99.90;;;;;;5004196;28;20432;-76
2023/03/21 02:58:11;;;;;;;4.87;3.90;;;11.70;99.90;;;;;;5003828;28;21032;-72
2023/03/21 03:00:38;;;;;;;4.63;3.30;;;11.70;99.90;;;;;;5004564;28;20427;-71
2023/03/21 03:03:03;;;;;;;3.37;2.57;;;11.70;99.90;;;;;;5005625;28;20421;-70
2023/03/21 03:05:34;;;;;;;3.20;2.90;;;11.60;99.90;;;;;;5005295;28;20455;-70
2023/03/21 03:08:35;;;;;;;3.80;3.23;;;11.60;99.90;;;;;;5005424;28;20617;-70
2023/03/21 03:11:11;;;;;;;3.67;2.70;;;11.60;99.90;;;;;;5005387;28;20411;-72
2023/03/21 03:13:53;;;;;;;3.67;3.33;;;11.50;99.90;;;;;;5005350;28;20399;-71
2023/03/21 03:16:38;;;;;;;3.67;2.80;;;11.40;99.90;;;;;;5005175;28;20996;-75
2023/03/21 03:19:08;;;;;;;3.60;3.00;;;11.50;99.90;;;;;;5005352;28;20415;-70
2023/03/21 03:21:40;;;;;;;3.57;2.77;;;11.50;99.90;;;;;;5004802;28;20850;-70
2023/03/21 03:24:13;;;;;;;3.07;2.73;;;11.50;99.90;;;;;;5004033;28;20472;-70
2023/03/21 03:26:45;;;;;;;3.40;3.00;;;11.50;99.90;;;;;;5003402;28;20857;-70
2023/03/21 03:29:16;;;;;;;3.47;3.17;;;11.60;99.90;;;;;;5003566;28;20970;-73
2023/03/21 03:31:57;;;;;;;3.20;2.93;;;11.50;99.90;;;;;;5003768;28;20499;-70
2023/03/21 03:34:27;;;;;;;4.20;2.90;;;11.40;99.90;;;;;;5003649;28;20848;-70
2023/03/21 03:36:57;;;;;;;3.97;2.93;;;11.40;99.90;;;;;;5003849;28;20446;-70
2023/03/21 03:39:31;;;;;;;2.43;2.17;;;11.40;99.90;;;;;;5003831;28;20946;-75
2023/03/21 03:42:02;;;;;;;3.03;2.70;;;11.30;99.90;;;;;;5003886;28;20461;-69
2023/03/21 03:44:28;;;;;;;3.30;3.00;;;11.40;99.90;;;;;;5003527;28;20485;-69
2023/03/21 03:47:02;;;;;;;4.40;2.80;;;11.40;99.90;;;;;;5003727;28;20551;-72
2023/03/21 03:49:35;;;;;;;2.87;2.67;;;11.40;99.90;;;;;;5003638;28;20818;-69
2023/03/21 03:52:07;;;;;;;3.40;3.10;;;11.40;99.90;;;;;;5003113;28;20966;-71
2023/03/21 03:54:38;;;;;;;3.70;3.17;;;11.40;99.90;;;;;;5003572;28;20455;-69
2023/03/21 03:57:05;;;;;;;3.37;2.80;;;11.40;99.90;;;;;;5006018;28;20417;-71
2023/03/21 03:59:34;;;;;;;5.10;3.10;;;11.40;99.90;;;;;;5007355;28;20422;-71
2023/03/21 04:02:00;;;;;;;3.53;2.70;;;11.40;99.90;;;;;;5006904;28;20550;-74
2023/03/21 04:04:28;;;;;;;3.80;2.90;;;11.40;99.90;;;;;;5007127;28;20426;-75
2023/03/21 04:06:54;;;;;;;2.80;2.60;;;11.40;99.90;;;;;;5007033;28;20413;-69
2023/03/21 04:09:20;;;;;;;5.40;2.90;;;11.30;99.90;;;;;;5006873;28;20417;-72
2023/03/21 04:11:46;;;;;;;3.00;2.70;;;11.30;99.90;;;;;;5007013;28;20411;-70
2023/03/21 04:14:11;;;;;;;3.50;3.00;;;11.40;99.90;;;;;;5008207;28;20957;-74
2023/03/21 04:16:37;;;;;;;3.23;2.93;;;11.40;99.90;;;;;;5008713;28;20221;-76
2023/03/21 04:19:03;;;;;;;3.50;3.20;;;11.40;99.90;;;;;;5009138;28;20172;-72
2023/03/21 04:21:29;;;;;;;3.20;2.90;;;11.50;99.90;;;;;;5008434;28;20841;-73
2023/03/21 04:23:55;;;;;;;5.40;2.83;;;11.40;99.90;;;;;;5008815;28;20689;-70
2023/03/21 04:26:21;;;;;;;5.83;3.10;;;11.40;99.90;;;;;;5008214;28;20562;-70
2023/03/21 04:28:48;;;;;;;4.27;2.83;;;11.40;99.90;;;;;;5022759;28;20445;-70
2023/03/21 04:31:13;;;;;;;3.30;3.00;;;11.40;99.90;;;;;;5007885;28;20500;-71
2023/03/21 04:33:40;;;;;;;3.13;2.67;;;11.40;99.90;;;;;;5008918;28;20837;-72
2023/03/21 04:36:08;;;;;;;3.43;2.80;;;11.30;99.90;;;;;;5008744;28;20294;-69
2023/03/21 04:38:34;;;;;;;4.00;2.83;;;11.30;99.90;;;;;;5008166;28;20416;-70
2023/03/21 04:41:00;;;;;;;3.20;2.97;;;11.20;99.90;;;;;;5008224;28;20860;-73
2023/03/21 04:43:27;;;;;;;2.80;2.60;;;11.10;99.90;;;;;;5007294;28;20906;-70
2023/03/21 04:45:53;;;;;;;3.73;2.73;;;11.00;99.90;;;;;;5008480;28;20458;-70
2023/03/21 04:48:23;;;;;;;4.57;2.90;;;11.00;99.90;;;;;;5008258;28;20475;-70
2023/03/21 04:50:49;;;;;;;3.97;2.83;;;10.80;99.90;;;;;;5008556;28;20506;-71
2023/03/21 04:53:15;;;;;;;6.13;3.23;;;10.80;99.90;;;;;;5008212;28;20880;-70
2023/03/21 04:55:41;;;;;;;3.70;2.73;;;10.70;99.90;;;;;;5008473;28;20860;-76
2023/03/21 04:58:06;;;;;;;5.03;2.90;;;10.60;99.90;;;;;;5009048;28;20427;-72
2023/03/21 05:00:36;;;;;;;2.80;2.60;;;10.40;99.90;;;;;;5008465;28;20200;-71
2023/03/21 05:03:03;;;;;;;4.47;3.30;;;10.40;99.90;;;;;;5008599;28;20191;-75
2023/03/21 05:05:30;;;;;;;4.00;3.10;;;10.30;99.90;;;;;;5008101;28;20513;-76
2023/03/21 05:07:56;;;;;;;4.70;3.10;;;10.20;99.90;;;;;;5007239;28;20430;-71
2023/03/21 05:10:24;;;;;;;3.33;2.53;;;10.10;99.90;;;;;;5007703;28;20497;-70
2023/03/21 05:12:49;;;;;;;5.10;3.07;;;10.10;99.90;;;;;;5008119;28;20416;-70
2023/03/21 05:15:15;;;;;;;3.20;2.90;;;10.10;99.90;;;;;;5006409;28;20458;-70
2023/03/21 05:17:41;;;;;;;4.23;3.30;;;10.10;99.90;;;;;;5006175;28;20176;-75
2023/03/21 05:20:10;;;;;;;2.60;2.40;;;10.00;99.90;;;;;;5005713;28;20220;-73
2023/03/21 05:22:39;;;;;;;2.73;2.40;;;10.10;99.90;;;;;;5005815;28;20778;-70
2023/03/21 05:25:07;;;;;;;3.13;2.90;;;10.10;99.90;;;;;;5005280;28;20858;-71
2023/03/21 05:27:33;;;;;;;3.17;2.60;;;10.00;99.90;;;;;;5006141;28;20429;-71
2023/03/21 05:30:11;;;;;;;3.20;2.80;;;10.00;99.90;;;;;;5005554;28;20423;-73
2023/03/21 05:32:37;;;;;;;4.50;3.40;;;10.00;99.90;;;;;;5005954;28;20183;-71
2023/03/21 05:35:03;;;;;;;3.20;2.90;;;9.90;99.90;;;;;;5006118;28;20442;-72
2023/03/21 05:37:29;;;;;;;4.10;3.30;;;9.90;99.90;;;;;;5005421;28;20180;-71
2023/03/21 05:39:55;;;;;;;5.00;4.50;;;10.00;99.90;;;;;;5005514;28;20690;-69
2023/03/21 05:42:21;;;;;;;5.43;4.50;;;10.00;99.90;;;;;;5004072;28;20680;-69
2023/03/21 05:44:47;;;;;;;7.77;6.00;;;10.00;99.90;;;;;;5005472;28;20204;-72
2023/03/21 05:47:14;;;;;;;6.77;5.33;;;10.10;99.90;;;;;;5005642;28;20464;-69
2023/03/21 05:49:40;;;;;;;7.33;4.30;;;10.10;99.90;;;;;;5005365;28;20188;-70
2023/03/21 05:52:06;;;;;;;7.27;5.30;;;10.20;99.90;;;;;;5005756;28;20413;-77
2023/03/21 05:54:32;;;;;;;5.17;3.73;;;10.30;99.90;;;;;;5004309;28;20536;-70
2023/03/21 05:56:57;;;;;;;4.77;3.43;;;10.30;99.90;;;;;;5005520;28;20837;-78
2023/03/21 05:59:23;;;;;;;4.10;3.70;;;10.20;99.90;;;;;;5005560;28;20680;-70
2023/03/21 06:01:48;;;;;;;4.93;3.40;;;10.30;99.90;;;;;;5004981;28;20200;-74
2023/03/21 06:04:14;;;;;;;4.30;3.30;;;10.40;99.90;;;;;;5005311;28;20224;-70
2023/03/21 06:06:40;;;;;;;4.00;3.60;;;10.60;99.90;;;;;;5004864;28;20362;-69
2023/03/21 06:09:06;;;;;;;4.50;3.40;;;10.60;99.90;;;;;;5005690;28;20426;-71
2023/03/21 06:11:34;;;;;;;4.17;3.17;;;10.80;99.90;;;;;;5004697;28;20536;-69
2023/03/21 06:14:00;;;;;;;3.90;3.30;;;10.80;99.90;;;;;;5004720;28;20215;-70
2023/03/21 06:16:27;;;;;;;4.57;3.80;;;11.00;99.90;;;;;;5004810;28;20426;-74
2023/03/21 06:18:53;;;;;;;4.00;3.33;;;11.10;99.90;;;;;;5004108;28;20241;-69
2023/03/21 06:21:19;;;;;;;5.57;3.13;;;11.20;99.90;;;;;;5004786;28;20993;-75
2023/03/21 06:23:45;;;;;;;4.80;3.53;;;11.30;99.90;;;;;;5003831;28;21122;-76
2023/03/21 06:26:11;;;;;;;4.30;3.13;;;11.30;99.90;;;;;;5004186;28;20458;-75
2023/03/21 06:28:37;;;;;;;3.50;3.17;;;11.40;99.90;;;;;;5004539;28;20416;-69
2023/03/21 06:31:03;;;;;;;5.13;3.47;;;11.40;99.90;;;;;;5004196;28;20784;-70
2023/03/21 06:33:29;;;;;;;4.30;3.10;;;11.50;99.90;;;;;;5004229;28;20501;-70
2023/03/21 06:35:57;;;;;;;3.63;2.87;;;11.50;99.90;;;;;;5004673;28;20431;-70
2023/03/21 06:38:24;;;;;;;4.63;4.17;;;11.50;99.90;;;;;;5003756;28;20498;-69
2023/03/21 06:40:50;;;;;;;3.90;3.40;;;11.50;99.90;;;;;;5002182;28;20427;-73
2023/03/21 06:43:16;;;;;;;6.23;5.37;;;11.50;99.90;;;;;;5004287;28;20423;-72
2023/03/21 06:45:42;;;;;;;5.20;3.83;;;11.50;99.90;;;;;;5004062;28;20536;-75
2023/03/21 06:48:08;;;;;;;5.70;5.10;;;11.40;99.90;;;;;;5004536;28;20721;-69
2023/03/21 06:50:33;;;;;;;5.80;5.00;;;11.40;99.90;;;;;;5004413;28;20432;-74
2023/03/21 06:52:59;;;;;;;4.60;4.10;;;11.40;99.90;;;;;;5004041;28;20217;-69
2023/03/21 06:55:27;;;;;;;5.20;3.80;;;11.50;99.90;;;;;;5003791;28;20565;-70
2023/03/21 06:57:54;;;;;;;5.77;3.70;;;11.50;99.90;;;;;;5004793;28;20185;-77
2023/03/21 07:00:21;;;;;;;4.00;3.53;;;11.50;99.90;;;;;;5004035;28;20414;-72
2023/03/21 07:02:47;;;;;;;4.17;3.57;;;11.50;99.90;;;;;;5004046;28;20993;-74
2023/03/21 07:05:13;;;;;;;5.40;4.90;;;11.50;99.90;;;;;;5003863;28;20431;-71
2023/03/21 07:07:39;;;;;;;4.57;4.10;;;11.50;99.90;;;;;;5004459;28;20429;-75
2023/03/21 07:10:05;;;;;;;6.77;5.00;;;11.60;99.90;;;;;;5005729;28;20198;-71
2023/03/21 07:12:33;;;;;;;9.30;6.10;;;11.70;99.90;;;;;;5007751;28;20427;-71
2023/03/21 07:14:59;;;;;;;7.60;5.30;;;11.70;99.90;;;;;;5031768;22;20851;-74
2023/03/21 07:17:25;;;;;;;8.67;5.50;;;11.80;99.90;;;;;;5012112;28;20464;-71
2023/03/21 07:19:51;;;;;;;5.90;4.40;;;12.00;99.90;;;;;;5018399;28;20407;-72
2023/03/21 07:22:17;;;;;;;7.00;4.37;;;12.10;99.90;;;;;;5021437;28;20560;-72
2023/03/21 07:24:43;;;;;;;5.83;5.03;;;12.20;99.90;;;;;;5016518;28;20687;-70
2023/03/21 07:27:08;;;;;;;5.40;3.90;;;12.30;99.90;;;;;;5002111;28;20614;-71
2023/03/21 07:29:34;;;;;;;10.87;9.97;;;12.40;99.90;;;;;;5004339;28;20178;-70
2023/03/21 07:31:59;;;;;;;8.57;5.37;;;12.30;99.90;;;;;;5007890;28;20204;-70
2023/03/21 07:34:30;;;;;;;5.80;5.17;;;12.10;99.90;;;;;;5007729;28;20199;-72
2023/03/21 07:36:56;;;;;;;6.40;4.70;;;11.90;99.90;;;;;;5007828;28;20172;-72
2023/03/21 07:39:22;;;;;;;6.03;5.27;;;11.60;99.90;;;;;;5007071;28;20465;-71
2023/03/21 07:41:48;;;;;;;4.67;4.27;;;11.90;99.90;;;;;;5006334;28;20960;-71
2023/03/21 07:44:13;;;;;;;8.97;4.20;;;12.20;99.90;;;;;;5007965;28;20415;-70
2023/03/21 07:46:39;;;;;;;5.27;4.53;;;12.40;99.90;;;;;;5007357;28;21240;-69
2023/03/21 07:49:05;;;;;;;4.23;3.83;;;12.60;99.90;;;;;;5007480;28;20726;-70
2023/03/21 07:51:31;;;;;;;6.93;4.60;;;12.80;99.90;;;;;;5005646;28;20584;-70
2023/03/21 07:53:56;;;;;;;8.33;5.13;;;13.00;99.90;;;;;;5005293;28;20515;-72
2023/03/21 07:56:22;;;;;;;6.10;3.73;;;13.20;99.90;;;;;;5006669;28;20452;-70
2023/03/21 07:58:47;;;;;;;4.10;3.73;;;13.30;99.90;;;;;;5007067;28;20181;-72
2023/03/21 08:01:13;;;;;;;5.00;4.17;;;13.40;99.90;;;;;;5007247;28;20699;-71
2023/03/21 08:03:38;;;;;;;4.20;3.80;;;13.40;99.90;;;;;;5007083;28;20559;-72
2023/03/21 08:06:04;;;;;;;3.47;3.17;;;13.20;99.90;;;;;;5007164;28;20213;-74
2023/03/21 08:08:32;;;;;;;6.17;3.57;;;12.90;99.90;;;;;;5005957;28;20189;-70
2023/03/21 08:10:57;;;;;;;4.97;3.70;;;12.90;99.90;;;;;;5007417;28;20177;-71
2023/03/21 08:13:24;;;;;;;2.80;2.43;;;13.00;99.90;;;;;;5006845;28;20421;-72
2023/03/21 08:15:50;;;;;;;2.80;2.60;;;13.30;99.90;;;;;;5006827;28;20212;-71
2023/03/21 08:18:16;;;;;;;4.60;3.10;;;13.20;99.90;;;;;;5007127;28;20783;-71
2023/03/21 08:20:41;;;;;;;3.90;2.73;;;13.30;99.90;;;;;;5007127;28;20178;-71
2023/03/21 08:23:07;;;;;;;4.30;3.40;;;13.20;99.90;;;;;;5006783;28;20754;-72
2023/03/21 08:25:33;;;;;;;4.63;3.00;;;13.20;99.90;;;;;;5006651;28;20213;-72
2023/03/21 08:27:58;;;;;;;4.47;2.90;;;13.40;99.90;;;;;;5006611;28;20679;-73
2023/03/21 08:30:26;;;;;;;5.17;2.70;;;13.40;99.90;;;;;;5006742;28;20270;-72
2023/03/21 08:32:56;;;;;;;4.27;3.17;;;13.40;99.90;;;;;;5007893;28;20182;-72
2023/03/21 08:35:22;;;;;;;5.00;3.03;;;13.60;99.90;;;;;;5008227;28;20436;-72
2023/03/21 08:37:47;;;;;;;3.03;2.13;;;13.50;99.90;;;;;;5008125;28;20430;-71
2023/03/21 08:40:16;;;;;;;3.10;2.50;;;13.50;99.90;;;;;;5007385;28;20209;-73
2023/03/21 08:42:42;;;;;;;2.50;2.30;;;13.70;99.90;;;;;;5006623;28;20186;-72
2023/03/21 08:45:10;;;;;;;2.73;2.53;;;13.60;99.90;;;;;;5006780;28;20542;-72
2023/03/21 08:47:36;;;;;;;2.53;2.30;;;13.50;99.90;;;;;;5009018;28;20420;-71
2023/03/21 08:50:05;;;;;;;3.00;2.70;;;13.50;99.90;;;;;;5006538;28;20421;-72
2023/03/21 08:52:31;;;;;;;2.27;2.10;;;13.90;99.90;;;;;;5007239;28;20177;-72
2023/03/21 08:54:56;;;;;;;4.10;3.70;;;13.80;99.90;;;;;;5006368;28;20742;-70
2023/03/21 08:57:22;;;;;;;3.73;2.67;;;13.80;99.90;;;;;;5007476;28;20515;-70
2023/03/21 08:59:47;;;;;;;2.70;2.23;;;13.80;99.90;;;;;;5006375;28;20658;-73
2023/03/21 09:02:15;;;;;;;3.77;2.07;;;14.20;99.90;;;;;;5006704;28;20187;-70
2023/03/21 09:04:42;;;;;;;2.63;2.27;;;14.10;99.90;;;;;;5006582;28;20281;-72
2023/03/21 09:07:09;;;;;;;3.50;1.93;;;14.00;99.90;;;;;;5006117;28;20458;-70
2023/03/21 09:09:35;;;;;;;2.67;2.00;;;14.40;99.90;;;;;;5005504;28;20500;-73
2023/03/21 09:12:00;;;;;;;1.93;1.43;;;14.70;99.90;;;;;;5005584;28;21061;-71
2023/03/21 09:14:26;;;;;;;1.80;1.60;;;14.90;98.60;;;;;;5005686;28;20257;-73
2023/03/21 09:16:51;;;;;;;4.77;1.93;;;14.70;98.00;;;;;;5005421;28;20339;-72
2023/03/21 09:19:17;;;;;;;2.70;1.57;;;14.70;97.50;;;;;;5005818;28;20260;-72
2023/03/21 09:21:43;;;;;;;2.00;1.70;;;14.70;97.30;;;;;;5004168;28;20184;-72
2023/03/21 09:24:11;;;;;;;2.37;1.80;;;14.70;95.60;;;;;;5005267;28;20604;-72
2023/03/21 09:26:37;;;;;;;2.40;1.47;;;14.90;96.10;;;;;;5005532;28;20465;-72
2023/03/21 09:29:04;;;;;;;1.70;1.60;;;15.10;97.60;;;;;;5005409;28;20419;-72
2023/03/21 09:31:30;;;;;;;2.03;1.50;;;15.10;96.30;;;;;;5005444;28;20186;-70
2023/03/21 09:33:57;;;;;;;2.40;1.77;;;15.10;96.50;;;;;;5005662;28;20428;-71
2023/03/21 09:36:25;;;;;;;2.80;1.43;;;15.00;96.50;;;;;;5005089;28;20437;-69
2023/03/21 09:38:51;;;;;;;2.60;1.93;;;15.20;96.20;;;;;;5004919;28;20422;-70
2023/03/21 09:41:40;;;;;;;3.17;1.80;;;15.20;96.00;;;;;;5005475;28;21038;-71
2023/03/21 09:44:24;;;;;;;5.47;1.93;;;15.60;96.00;;;;;;4987932;28;20491;-71
2023/03/21 09:47:05;;;;;;;4.00;1.80;;;15.70;95.70;;;;;;5005206;28;20539;-73
2023/03/21 09:49:37;;;;;;;1.77;1.50;;;15.80;95.60;;;;;;5003785;28;20450;-71
2023/03/21 09:52:12;;;;;;;1.87;1.60;;;16.10;95.30;;;;;;5005446;28;20409;-72
2023/03/21 09:54:44;;;;;;;1.73;1.60;;;16.30;94.90;;;;;;5004897;28;20976;-72
2023/03/21 09:57:31;;;;;;;3.10;2.00;;;16.30;94.10;;;;;;5004872;28;20718;-72
2023/03/21 10:00:08;;;;;;;3.20;2.00;;;16.40;94.50;;;;;;5005181;28;20807;-71
2023/03/21 10:02:37;;;;;;;1.57;1.47;;;16.20;94.80;;;;;;5004815;28;20935;-72
2023/03/21 10:05:11;;;;;;;2.40;1.83;;;16.50;94.60;;;;;;5004787;28;20481;-72
2023/03/21 10:07:43;;;;;;;2.07;1.50;;;16.60;94.10;;;;;;5003308;28;20430;-70
2023/03/21 10:10:16;;;;;;;2.00;1.50;;;16.90;94.30;;;;;;5004420;28;20418;-70
2023/03/21 10:12:44;;;;;;;2.33;1.67;;;17.20;93.40;;;;;;5004099;28;20406;-70
2023/03/21 10:15:15;;;;;;;1.90;1.70;;;17.40;94.40;;;;;;5004431;28;20512;-72
2023/03/21 10:17:49;;;;;;;3.13;2.10;;;17.60;93.70;;;;;;5004701;28;21030;-72
2023/03/21 10:20:20;;;;;;;1.97;1.73;;;17.90;94.50;;;;;;5004628;28;20441;-72
2023/03/21 10:22:49;;;;;;;3.20;1.80;;;17.30;93.60;;;;;;5003735;28;20426;-71
2023/03/21 10:25:23;;;;;;;2.63;1.50;;;17.20;93.90;;;;;;5002753;28;20439;-72
2023/03/21 10:27:51;;;;;;;2.13;1.93;;;17.10;94.60;;;;;;5004111;28;20410;-71
2023/03/21 10:30:55;;;;;;;1.97;1.63;;;17.40;94.20;;;;;;5003956;28;20415;-71
2023/03/21 10:33:28;;;;;;;2.17;1.97;;;17.90;94.00;;;;;;5004244;28;20413;-71
2023/03/21 10:36:25;;;;;;;2.53;2.23;;;17.80;93.70;;;;;;5004009;28;21145;-69
2023/03/21 10:39:03;;;;;;;2.53;1.97;;;17.60;94.20;;;;;;5003730;28;20924;-71
2023/03/21 10:41:29;;;;;;;2.10;1.90;;;17.80;94.10;;;;;;5004022;28;20407;-72
2023/03/21 10:44:15;;;;;;;2.00;1.50;;;18.10;93.50;;;;;;5002826;28;20423;-73
2023/03/21 10:46:52;;;;;;;2.73;1.60;;;18.40;93.90;;;;;;5004040;28;20223;-72
2023/03/21 10:49:20;;;;;;;1.93;1.60;;;18.40;92.60;;;;;;5004186;28;20553;-72
2023/03/21 10:51:48;;;;;;;1.77;1.40;;;18.20;92.00;;;;;;5004090;28;20418;-73
2023/03/21 10:54:18;;;;;;;1.77;1.67;;;18.50;91.80;;;;;;5003269;28;20517;-72
2023/03/21 10:56:56;;;;;;;3.87;1.83;;;19.10;91.00;;;;;;5003949;28;20440;-72
2023/03/21 10:59:22;;;;;;;2.50;1.40;;;19.40;90.20;;;;;;5002084;28;20630;-70
2023/03/21 11:01:51;;;;;;;2.13;1.57;;;19.80;89.80;;;;;;5003895;28;20419;-73
2023/03/21 11:04:23;;;;;;;2.30;1.40;;;19.90;89.50;;;;;;5003454;28;20456;-71
2023/03/21 11:07:00;;;;;;;2.37;1.47;;;19.30;89.20;;;;;;5003667;28;20915;-71
2023/03/21 11:09:49;;;;;;;1.60;1.30;;;19.50;88.60;;;;;;5003434;28;20421;-71
2023/03/21 11:12:17;;;;;;;1.20;1.10;;;19.80;86.90;;;;;;5003898;28;20437;-72
2023/03/21 11:14:48;;;;;;;2.00;1.20;;;19.40;85.30;;;;;;5003577;28;20457;-71
2023/03/21 11:17:16;;;;;;;1.93;1.27;;;19.40;86.60;;;;;;5003948;28;20957;-71
2023/03/21 11:19:49;;;;;;;1.77;1.17;;;19.50;87.10;;;;;;5002312;28;20422;-72
2023/03/21 11:22:17;;;;;;;1.60;1.23;;;19.50;87.40;;;;;;5002393;28;20433;-72
2023/03/21 11:24:52;;;;;;;1.30;1.07;;;19.10;87.00;;;;;;5003175;28;20435;-72
2023/03/21 11:27:18;;;;;;;1.67;1.30;;;19.40;88.60;;;;;;5003922;28;20952;-70
2023/03/21 11:29:47;;;;;;;1.80;1.50;;;19.70;87.80;;;;;;5004064;28;20660;-70
2023/03/21 11:32:42;;;;;;;2.20;1.40;;;20.00;86.10;;;;;;5003646;28;20477;-73
2023/03/21 11:36:03;;;;;;;1.60;1.20;;;19.80;85.30;;;;;;4981274;28;20568;-71
2023/03/21 11:38:34;;;;;;;1.53;1.40;;;19.80;84.20;;;;;;4923304;29;20459;-74
2023/03/21 11:41:01;;;;;;;1.10;1.00;;;19.60;85.10;;;;;;4924042;29;20418;-73
2023/03/21 11:43:33;;;;;;;1.60;0.90;;;19.60;83.70;;;;;;4972963;28;20802;-73
2023/03/21 11:46:07;;;;;;;1.77;0.90;;;19.20;83.40;;;;;;5003309;28;20501;-70
2023/03/21 11:48:42;;;;;;;1.20;1.00;;;19.20;83.60;;;;;;5003110;28;20473;-72
2023/03/21 11:51:32;;;;;;;1.00;0.90;;;19.20;86.80;;;;;;5003820;28;20417;-71
2023/03/21 11:54:04;;;;;;;2.90;0.97;;;19.40;83.20;;;;;;5003316;28;20414;-71
2023/03/21 11:56:41;;;;;;;1.50;1.03;;;19.70;84.90;;;;;;5003263;28;20433;-73
2023/03/21 11:59:36;;;;;;;1.70;0.80;;;19.40;82.40;;;;;;5003018;28;20532;-73
2023/03/21 12:02:47;;;;;;;1.30;1.00;;;19.40;82.90;;;;;;5003038;28;20428;-71
2023/03/21 12:05:20;;;;;;;1.10;1.00;;;19.60;81.30;;;;;;5002559;28;20430;-70
2023/03/21 12:08:16;;;;;;;1.73;1.10;;;19.60;80.30;;;;;;5003199;28;20441;-73
2023/03/21 12:10:56;;;;;;;1.60;1.23;;;19.70;80.20;;;;;;5002678;28;20973;-71
2023/03/21 12:13:35;;;;;;;1.27;1.10;;;19.30;81.00;;;;;;5003617;28;20399;-73
2023/03/21 12:16:29;;;;;;;1.03;0.70;;;19.50;79.90;;;;;;5002938;28;20528;-71
2023/03/21 12:19:14;;;;;;;2.23;1.10;;;19.70;78.10;;;;;;5006540;28;20945;-73
2023/03/21 12:21:54;;;;;;;1.67;1.03;;;19.60;78.60;;;;;;5006497;28;20418;-73
2023/03/21 12:24:51;;;;;;;1.40;1.00;;;19.30;78.60;;;;;;5007272;28;20916;-72
2023/03/21 12:27:33;;;;;;;1.80;1.00;;;19.20;81.20;;;;;;5007050;28;20505;-72
2023/03/21 12:30:29;;;;;;;1.60;1.10;;;19.30;80.90;;;;;;5007134;28;20517;-72
2023/03/21 12:33:12;;;;;;;2.07;1.50;;;19.40;80.70;;;;;;5005683;28;20425;-71
2023/03/21 12:35:40;;;;;;;1.27;1.00;;;19.10;79.30;;;;;;5006527;28;20430;-72
2023/03/21 12:38:20;;;;;;;3.70;1.20;;;18.90;79.50;;;;;;5006624;28;20430;-73
2023/03/21 12:41:10;;;;;;;1.20;1.10;;;19.10;79.20;;;;;;5006113;28;20521;-72
2023/03/21 12:43:47;;;;;;;1.97;1.10;;;19.30;77.00;;;;;;5006220;28;20419;-70
2023/03/21 12:46:32;;;;;;;1.10;1.00;;;19.80;75.30;;;;;;5005052;28;20478;-71
2023/03/21 12:49:05;;;;;;;2.20;1.20;;;20.20;75.40;;;;;;5006105;28;20518;-73
2023/03/21 12:51:46;;;;;;;4.33;1.27;;;20.40;75.60;;;;;;5006725;28;20474;-73
2023/03/21 12:54:20;;;;;;;1.10;0.90;;;20.30;73.00;;;;;;5007056;28;20477;-73
2023/03/21 12:56:53;;;;;;;1.93;1.33;;;20.40;75.50;;;;;;5007123;28;21099;-73
2023/03/21 12:59:37;;;;;;;1.13;0.90;;;20.70;72.20;;;;;;5007085;28;20996;-73
2023/03/21 13:02:23;;;;;;;1.73;1.20;;;20.70;71.70;;;;;;5006850;28;20427;-73
2023/03/21 13:04:56;;;;;;;2.50;1.00;;;20.50;74.60;;;;;;5007057;28;20525;-71
2023/03/21 13:07:24;;;;;;;3.53;2.20;;;21.20;70.90;;;;;;5006890;28;20457;-72